createdAt,value
2017-08-26T00:00:09.063Z,52.62
2017-08-26T00:01:09.453Z,52.84
2017-08-26T00:02:09.134Z,53.20
2017-08-26T00:03:09.179Z,53.20
2017-08-26T00:04:09.209Z,53.20
2017-08-26T00:05:09.292Z,53.10
2017-08-26T00:06:09.296Z,53.10
2017-08-26T00:07:09.619Z,53.10
2017-08-26T00:08:09.355Z,53.00
2017-08-26T00:09:09.389Z,53.20
2017-08-26T00:10:09.491Z,53.00
2017-08-26T00:11:09.469Z,53.10
2017-08-26T00:12:09.509Z,52.91
2017-08-26T00:13:09.847Z,52.81
2017-08-26T00:14:09.594Z,53.10
2017-08-26T00:15:09.634Z,53.10
2017-08-26T00:16:09.673Z,53.78
2017-08-26T00:17:09.718Z,53.20
2017-08-26T00:18:09.746Z,53.39
2017-08-26T00:19:10.074Z,53.39
2017-08-26T00:20:09.815Z,53.59
2017-08-26T00:21:09.847Z,53.49
2017-08-26T00:22:09.891Z,53.49
2017-08-26T00:23:09.935Z,53.49
2017-08-26T00:24:09.986Z,53.59
2017-08-26T00:25:10.302Z,53.30
2017-08-26T00:26:10.035Z,53.30
2017-08-26T00:27:10.073Z,53.39
2017-08-26T00:28:10.119Z,53.39
2017-08-26T00:29:10.147Z,53.30
2017-08-26T00:30:10.189Z,53.30
2017-08-26T00:31:10.534Z,53.30
2017-08-26T00:32:10.261Z,53.59
2017-08-26T00:33:10.312Z,53.69
2017-08-26T00:34:10.339Z,53.39
2017-08-26T00:35:10.377Z,53.30
2017-08-26T00:36:10.564Z,53.97
2017-08-26T00:37:10.754Z,53.78
2017-08-26T00:38:10.503Z,53.59
2017-08-26T00:39:10.526Z,53.69
2017-08-26T00:40:10.572Z,53.78
2017-08-26T00:41:10.612Z,53.69
2017-08-26T00:42:10.644Z,53.69
2017-08-26T00:43:10.988Z,53.78
2017-08-26T00:44:10.714Z,53.97
2017-08-26T00:45:10.759Z,53.49
2017-08-26T00:46:10.833Z,53.97
2017-08-26T00:47:10.842Z,54.36
2017-08-26T00:48:10.870Z,54.17
2017-08-26T00:49:11.255Z,53.97
2017-08-26T00:50:11.039Z,54.27
2017-08-26T00:51:10.985Z,54.27
2017-08-26T00:52:11.022Z,53.88
2017-08-26T00:53:11.059Z,54.17
2017-08-26T00:54:11.505Z,53.88
2017-08-26T00:55:11.480Z,54.17
2017-08-26T00:56:11.169Z,54.17
2017-08-26T00:57:11.218Z,54.07
2017-08-26T00:58:11.242Z,54.36
2017-08-26T00:59:11.295Z,53.97
2017-08-26T01:00:11.323Z,54.07
2017-08-26T01:01:11.663Z,54.07
2017-08-26T01:02:11.397Z,54.07
2017-08-26T01:03:11.443Z,54.07
2017-08-26T01:04:11.483Z,53.78
2017-08-26T01:05:11.515Z,54.17
2017-08-26T01:06:11.797Z,53.88
2017-08-26T01:07:11.891Z,54.46
2017-08-26T01:08:11.821Z,54.46
2017-08-26T01:09:11.674Z,54.46
2017-08-26T01:10:11.704Z,54.36
2017-08-26T01:11:11.741Z,54.46
2017-08-26T01:12:11.776Z,54.56
2017-08-26T01:13:12.109Z,54.36
2017-08-26T01:14:11.854Z,54.17
2017-08-26T01:15:11.896Z,54.46
2017-08-26T01:16:11.929Z,54.27
2017-08-26T01:17:12.017Z,54.27
2017-08-26T01:18:12.009Z,54.27
2017-08-26T01:19:12.337Z,54.46
2017-08-26T01:20:12.226Z,54.27
2017-08-26T01:21:12.115Z,54.27
2017-08-26T01:22:12.168Z,54.56
2017-08-26T01:23:12.192Z,54.56
2017-08-26T01:24:12.226Z,54.56
2017-08-26T01:25:12.263Z,55.04
2017-08-26T01:26:12.608Z,55.04
2017-08-26T01:27:12.339Z,55.14
2017-08-26T01:28:12.379Z,54.66
2017-08-26T01:29:12.413Z,54.75
2017-08-26T01:30:12.457Z,54.94
2017-08-26T01:31:12.641Z,54.75
2017-08-26T01:32:12.829Z,54.94
2017-08-26T01:33:12.563Z,54.75
2017-08-26T01:34:12.608Z,54.85
2017-08-26T01:35:12.644Z,54.75
2017-08-26T01:36:12.684Z,54.85
2017-08-26T01:37:12.714Z,54.46
2017-08-26T01:38:13.066Z,54.46
2017-08-26T01:39:12.796Z,54.46
2017-08-26T01:40:12.877Z,54.75
2017-08-26T01:41:12.869Z,54.72
2017-08-26T01:42:12.910Z,54.94
2017-08-26T01:43:12.943Z,54.92
2017-08-26T01:44:13.277Z,54.94
2017-08-26T01:45:13.116Z,54.94
2017-08-26T01:46:13.055Z,54.66
2017-08-26T01:47:13.090Z,54.85
2017-08-26T01:48:13.130Z,54.94
2017-08-26T01:49:13.175Z,55.04
2017-08-26T01:50:13.559Z,54.75
2017-08-26T01:51:13.244Z,54.53
2017-08-26T01:52:13.280Z,54.66
2017-08-26T01:53:13.334Z,54.94
2017-08-26T01:54:13.355Z,54.63
2017-08-26T01:55:13.447Z,54.85
2017-08-26T01:56:13.447Z,54.85
2017-08-26T01:57:13.767Z,54.72
2017-08-26T01:58:13.506Z,54.75
2017-08-26T01:59:13.561Z,55.11
2017-08-26T02:00:13.680Z,54.92
2017-08-26T02:01:13.624Z,54.92
2017-08-26T02:02:13.667Z,55.02
2017-08-26T02:03:13.997Z,55.11
2017-08-26T02:04:13.744Z,54.75
2017-08-26T02:05:13.878Z,54.92
2017-08-26T02:06:13.810Z,55.24
2017-08-26T02:07:13.847Z,55.69
2017-08-26T02:08:13.882Z,55.31
2017-08-26T02:09:13.934Z,55.60
2017-08-26T02:10:14.258Z,55.50
2017-08-26T02:11:13.993Z,55.79
2017-08-26T02:12:14.044Z,55.50
2017-08-26T02:13:14.069Z,55.60
2017-08-26T02:14:14.112Z,55.41
2017-08-26T02:15:14.173Z,55.50
2017-08-26T02:16:14.638Z,55.31
2017-08-26T02:17:14.220Z,55.21
2017-08-26T02:18:14.255Z,55.21
2017-08-26T02:19:14.306Z,55.31
2017-08-26T02:20:14.330Z,55.21
2017-08-26T02:21:14.399Z,55.41
2017-08-26T02:22:14.708Z,55.89
2017-08-26T02:23:14.500Z,55.31
2017-08-26T02:24:14.483Z,55.50
2017-08-26T02:25:14.519Z,55.41
2017-08-26T02:26:14.610Z,55.50
2017-08-26T02:27:14.606Z,55.31
2017-08-26T02:28:14.934Z,55.60
2017-08-26T02:29:14.721Z,55.60
2017-08-26T02:30:14.709Z,55.60
2017-08-26T02:31:14.755Z,55.50
2017-08-26T02:32:14.829Z,55.21
2017-08-26T02:33:14.832Z,55.31
2017-08-26T02:34:15.160Z,55.50
2017-08-26T02:35:14.916Z,55.50
2017-08-26T02:36:14.991Z,55.69
2017-08-26T02:37:15.050Z,55.69
2017-08-26T02:38:15.008Z,55.41
2017-08-26T02:39:15.052Z,55.69
2017-08-26T02:40:15.402Z,55.60
2017-08-26T02:41:15.126Z,55.89
2017-08-26T02:42:15.207Z,55.60
2017-08-26T02:43:15.245Z,55.79
2017-08-26T02:44:15.244Z,55.79
2017-08-26T02:45:15.272Z,55.89
2017-08-26T02:46:15.609Z,55.89
2017-08-26T02:47:15.447Z,55.60
2017-08-26T02:48:15.382Z,55.89
2017-08-26T02:49:15.422Z,55.69
2017-08-26T02:50:15.458Z,55.69
2017-08-26T02:51:15.569Z,55.89
2017-08-26T02:52:15.847Z,55.79
2017-08-26T02:53:15.572Z,55.99
2017-08-26T02:54:15.609Z,55.79
2017-08-26T02:55:15.648Z,55.79
2017-08-26T02:56:15.732Z,55.79
2017-08-26T02:57:15.722Z,55.79
2017-08-26T02:58:16.120Z,56.09
2017-08-26T02:59:15.815Z,55.79
2017-08-26T03:00:15.852Z,55.79
2017-08-26T03:01:15.894Z,56.18
2017-08-26T03:02:16.060Z,55.60
2017-08-26T03:03:15.947Z,55.79
2017-08-26T03:04:16.316Z,55.79
2017-08-26T03:05:16.025Z,55.69
2017-08-26T03:06:16.103Z,55.69
2017-08-26T03:07:16.146Z,55.89
2017-08-26T03:08:16.154Z,55.31
2017-08-26T03:09:16.182Z,55.50
2017-08-26T03:10:16.508Z,55.69
2017-08-26T03:11:16.247Z,55.89
2017-08-26T03:12:16.287Z,55.99
2017-08-26T03:13:16.324Z,55.79
2017-08-26T03:14:16.375Z,55.89
2017-08-26T03:15:16.404Z,55.79
2017-08-26T03:16:16.738Z,55.99
2017-08-26T03:17:16.483Z,55.99
2017-08-26T03:18:16.513Z,55.89
2017-08-26T03:19:16.550Z,55.99
2017-08-26T03:20:16.639Z,55.89
2017-08-26T03:21:16.683Z,55.99
2017-08-26T03:22:16.711Z,55.99
2017-08-26T03:23:16.999Z,56.18
2017-08-26T03:24:16.741Z,55.89
2017-08-26T03:25:16.774Z,56.28
2017-08-26T03:26:16.809Z,55.79
2017-08-26T03:27:16.927Z,55.69
2017-08-26T03:28:16.888Z,55.79
2017-08-26T03:29:17.236Z,55.89
2017-08-26T03:30:16.970Z,55.60
2017-08-26T03:31:16.998Z,55.69
2017-08-26T03:32:17.239Z,55.69
2017-08-26T03:33:17.073Z,55.69
2017-08-26T03:34:17.113Z,55.89
2017-08-26T03:35:17.455Z,55.79
2017-08-26T03:36:17.186Z,55.79
2017-08-26T03:37:17.230Z,55.60
2017-08-26T03:38:17.265Z,55.79
2017-08-26T03:39:17.302Z,55.69
2017-08-26T03:40:17.334Z,55.89
2017-08-26T03:41:17.705Z,56.37
2017-08-26T03:42:17.417Z,55.77
2017-08-26T03:43:17.652Z,56.09
2017-08-26T03:44:17.482Z,55.79
2017-08-26T03:45:17.522Z,56.15
2017-08-26T03:46:17.565Z,55.96
2017-08-26T03:47:17.903Z,56.25
2017-08-26T03:48:17.645Z,56.25
2017-08-26T03:49:17.926Z,55.87
2017-08-26T03:50:18.074Z,56.05
2017-08-26T03:51:17.748Z,55.99
2017-08-26T03:52:17.789Z,55.87
2017-08-26T03:53:18.122Z,55.87
2017-08-26T03:54:17.859Z,55.96
2017-08-26T03:55:17.927Z,56.25
2017-08-26T03:56:17.948Z,55.87
2017-08-26T03:57:17.980Z,55.87
2017-08-26T03:58:18.018Z,55.87
2017-08-26T03:59:18.368Z,56.05
2017-08-26T04:00:18.223Z,55.96
2017-08-26T04:01:18.124Z,55.77
2017-08-26T04:02:18.157Z,56.05
2017-08-26T04:03:18.229Z,55.87
2017-08-26T04:04:18.337Z,56.05
2017-08-26T04:05:20.027Z,55.96
2017-08-26T04:06:18.311Z,56.45
2017-08-26T04:08:18.435Z,56.15
2017-08-26T04:09:18.431Z,56.54
2017-08-26T04:10:18.459Z,56.35
2017-08-26T04:12:18.834Z,56.35
2017-08-26T04:13:18.635Z,56.25
2017-08-26T04:14:19.370Z,56.15
2017-08-26T04:15:18.648Z,56.45
2017-08-26T04:16:18.687Z,56.54
2017-08-26T04:17:18.722Z,56.35
2017-08-26T04:18:19.214Z,56.64
2017-08-26T04:19:18.798Z,56.15
2017-08-26T04:20:18.831Z,55.96
2017-08-26T04:21:18.875Z,56.35
2017-08-26T04:22:18.966Z,56.64
2017-08-26T04:23:18.946Z,56.54
2017-08-26T04:24:19.533Z,56.54
2017-08-26T04:25:19.021Z,56.64
2017-08-26T04:26:19.055Z,56.25
2017-08-26T04:27:19.094Z,56.45
2017-08-26T04:28:19.132Z,56.25
2017-08-26T04:29:19.219Z,56.45
2017-08-26T04:30:19.511Z,56.64
2017-08-26T04:31:19.256Z,56.25
2017-08-26T04:32:19.283Z,56.45
2017-08-26T04:33:19.324Z,56.35
2017-08-26T04:34:19.360Z,56.45
2017-08-26T04:35:19.393Z,56.25
2017-08-26T04:36:19.440Z,56.35
2017-08-26T04:37:19.770Z,56.05
2017-08-26T04:38:19.505Z,56.15
2017-08-26T04:39:19.543Z,56.25
2017-08-26T04:40:19.792Z,56.25
2017-08-26T04:41:19.637Z,56.25
2017-08-26T04:42:19.654Z,56.05
2017-08-26T04:43:19.993Z,56.25
2017-08-26T04:44:19.724Z,56.25
2017-08-26T04:45:19.769Z,56.83
2017-08-26T04:46:19.800Z,56.35
2017-08-26T04:47:19.840Z,56.35
2017-08-26T04:48:19.879Z,56.64
2017-08-26T04:49:20.215Z,56.35
2017-08-26T04:50:19.955Z,56.54
2017-08-26T04:51:19.991Z,56.35
2017-08-26T04:52:20.026Z,56.45
2017-08-26T04:53:20.068Z,56.35
2017-08-26T04:54:20.110Z,56.45
2017-08-26T04:55:20.444Z,56.54
2017-08-26T04:56:20.175Z,56.45
2017-08-26T04:57:20.217Z,56.45
2017-08-26T04:58:20.259Z,56.45
2017-08-26T04:59:20.286Z,56.64
2017-08-26T05:00:20.382Z,56.45
2017-08-26T05:01:20.673Z,56.45
2017-08-26T05:02:20.398Z,56.45
2017-08-26T05:03:20.456Z,56.35
2017-08-26T05:04:20.471Z,56.45
2017-08-26T05:05:20.988Z,56.35
2017-08-26T05:06:20.564Z,56.15
2017-08-26T05:07:20.892Z,56.74
2017-08-26T05:08:20.628Z,56.64
2017-08-26T05:09:20.659Z,56.45
2017-08-26T05:10:20.998Z,56.45
2017-08-26T05:11:20.739Z,56.35
2017-08-26T05:12:20.772Z,57.03
2017-08-26T05:13:21.120Z,56.93
2017-08-26T05:14:21.046Z,57.03
2017-08-26T05:15:20.881Z,56.93
2017-08-26T05:16:20.935Z,56.93
2017-08-26T05:17:20.963Z,57.03
2017-08-26T05:18:21.005Z,56.74
2017-08-26T05:19:21.379Z,56.64
2017-08-26T05:20:21.084Z,56.93
2017-08-26T05:21:21.110Z,56.25
2017-08-26T05:22:21.143Z,57.03
2017-08-26T05:23:21.188Z,56.93
2017-08-26T05:24:21.274Z,56.93
2017-08-26T05:25:21.562Z,56.93
2017-08-26T05:26:21.299Z,56.74
2017-08-26T05:27:21.333Z,56.93
2017-08-26T05:28:21.371Z,56.83
2017-08-26T05:29:21.405Z,56.93
2017-08-26T05:30:21.444Z,57.03
2017-08-26T05:31:21.778Z,56.83
2017-08-26T05:32:21.514Z,56.64
2017-08-26T05:33:21.550Z,56.74
2017-08-26T05:34:21.602Z,56.15
2017-08-26T05:35:21.782Z,56.45
2017-08-26T05:36:21.675Z,56.64
2017-08-26T05:37:22.007Z,56.45
2017-08-26T05:38:21.755Z,56.54
2017-08-26T05:39:21.780Z,56.45
2017-08-26T05:40:21.815Z,56.54
2017-08-26T05:41:21.917Z,56.64
2017-08-26T05:42:21.900Z,56.05
2017-08-26T05:43:22.231Z,56.45
2017-08-26T05:44:21.972Z,56.45
2017-08-26T05:45:22.006Z,56.25
2017-08-26T05:46:22.142Z,56.25
2017-08-26T05:47:22.074Z,56.05
2017-08-26T05:48:22.120Z,56.05
2017-08-26T05:49:22.206Z,56.35
2017-08-26T05:50:22.499Z,56.64
2017-08-26T05:51:22.240Z,56.54
2017-08-26T05:52:22.466Z,56.64
2017-08-26T05:53:22.304Z,56.54
2017-08-26T05:54:22.349Z,56.45
2017-08-26T05:55:22.384Z,56.64
2017-08-26T05:56:22.716Z,56.35
2017-08-26T05:57:22.488Z,56.64
2017-08-26T05:58:22.504Z,56.15
2017-08-26T05:59:22.528Z,56.15
2017-08-26T06:00:22.588Z,56.05
2017-08-26T06:01:22.601Z,56.05
2017-08-26T06:02:22.950Z,56.05
2017-08-26T06:03:22.675Z,55.96
2017-08-26T06:04:22.725Z,55.77
2017-08-26T06:05:22.763Z,55.96
2017-08-26T06:06:22.788Z,55.96
2017-08-26T06:07:22.828Z,55.87
2017-08-26T06:08:23.221Z,55.96
2017-08-26T06:09:22.897Z,55.87
2017-08-26T06:10:22.939Z,55.87
2017-08-26T06:11:22.970Z,56.05
2017-08-26T06:12:23.016Z,55.96
2017-08-26T06:13:23.061Z,56.15
2017-08-26T06:14:23.399Z,56.05
2017-08-26T06:15:23.132Z,56.15
2017-08-26T06:16:23.168Z,55.87
2017-08-26T06:17:23.400Z,56.05
2017-08-26T06:18:23.236Z,56.05
2017-08-26T06:19:23.274Z,55.96
2017-08-26T06:20:23.613Z,56.05
2017-08-26T06:21:23.367Z,55.89
2017-08-26T06:22:23.388Z,55.77
2017-08-26T06:23:23.462Z,56.09
2017-08-26T06:24:23.464Z,56.05
2017-08-26T06:25:23.502Z,55.99
2017-08-26T06:26:23.833Z,55.69
2017-08-26T06:27:23.579Z,56.28
2017-08-26T06:28:23.713Z,56.28
2017-08-26T06:29:23.655Z,56.67
2017-08-26T06:30:23.691Z,56.09
2017-08-26T06:31:23.729Z,55.79
2017-08-26T06:32:24.118Z,55.89
2017-08-26T06:33:23.863Z,55.69
2017-08-26T06:34:23.835Z,55.89
2017-08-26T06:35:23.877Z,55.69
2017-08-26T06:36:23.915Z,55.50
2017-08-26T06:37:23.954Z,55.50
2017-08-26T06:38:24.302Z,55.21
2017-08-26T06:39:24.490Z,55.60
2017-08-26T06:40:24.071Z,55.60
2017-08-26T06:41:24.113Z,54.72
2017-08-26T06:42:24.167Z,55.02
2017-08-26T06:43:24.176Z,54.53
2017-08-26T06:44:24.514Z,54.63
2017-08-26T06:45:24.270Z,54.92
2017-08-26T06:46:24.290Z,54.46
2017-08-26T06:47:24.380Z,54.72
2017-08-26T06:48:24.391Z,55.04
2017-08-26T06:49:24.413Z,55.04
2017-08-26T06:50:24.742Z,54.36
2017-08-26T06:51:24.497Z,54.46
2017-08-26T06:52:24.522Z,54.36
2017-08-26T06:53:24.561Z,54.36
2017-08-26T06:54:24.593Z,54.56
2017-08-26T06:55:24.635Z,54.66
2017-08-26T06:56:24.976Z,53.97
2017-08-26T06:57:24.708Z,54.17
2017-08-26T06:58:24.746Z,54.17
2017-08-26T06:59:24.782Z,54.07
2017-08-26T07:00:24.828Z,53.97
2017-08-26T07:01:24.905Z,53.88
2017-08-26T07:02:25.465Z,54.17
2017-08-26T07:03:24.939Z,54.36
2017-08-26T07:04:24.994Z,54.07
2017-08-26T07:05:25.014Z,53.97
2017-08-26T07:06:25.047Z,53.78
2017-08-26T07:07:25.091Z,53.69
2017-08-26T07:08:25.426Z,53.69
2017-08-26T07:09:25.167Z,53.69
2017-08-26T07:10:25.260Z,53.59
2017-08-26T07:11:25.267Z,53.20
2017-08-26T07:12:25.277Z,53.30
2017-08-26T07:13:25.350Z,53.20
2017-08-26T07:14:25.660Z,53.39
2017-08-26T07:15:25.396Z,53.78
2017-08-26T07:16:25.439Z,53.59
2017-08-26T07:17:25.479Z,53.39
2017-08-26T07:18:25.510Z,53.59
2017-08-26T07:19:25.558Z,53.39
2017-08-26T07:20:25.895Z,53.10
2017-08-26T07:21:25.622Z,53.00
2017-08-26T07:22:25.666Z,52.81
2017-08-26T07:23:25.798Z,52.91
2017-08-26T07:24:25.734Z,53.20
2017-08-26T07:25:25.776Z,53.10
2017-08-26T07:26:26.112Z,53.10
2017-08-26T07:27:25.858Z,52.91
2017-08-26T07:28:25.898Z,53.10
2017-08-26T07:29:25.986Z,52.74
2017-08-26T07:30:25.968Z,52.62
2017-08-26T07:31:26.003Z,52.94
2017-08-26T07:32:26.349Z,52.74
2017-08-26T07:33:26.086Z,52.64
2017-08-26T07:34:26.234Z,52.74
2017-08-26T07:35:26.159Z,52.55
2017-08-26T07:36:26.200Z,52.64
2017-08-26T07:37:26.252Z,52.84
2017-08-26T07:38:26.574Z,52.64
2017-08-26T07:39:26.323Z,52.94
2017-08-26T07:40:26.370Z,52.74
2017-08-26T07:41:26.399Z,52.25
2017-08-26T07:42:26.438Z,52.45
2017-08-26T07:43:26.472Z,52.55
2017-08-26T07:44:26.960Z,52.55
2017-08-26T07:45:26.554Z,52.45
2017-08-26T07:46:26.597Z,52.55
2017-08-26T07:47:26.645Z,52.64
2017-08-26T07:48:26.672Z,52.64
2017-08-26T07:49:26.708Z,52.55
2017-08-26T07:50:27.042Z,52.35
2017-08-26T07:51:26.778Z,52.35
2017-08-26T07:52:26.825Z,52.35
2017-08-26T07:53:26.856Z,52.35
2017-08-26T07:54:26.959Z,51.87
2017-08-26T07:55:26.933Z,51.87
2017-08-26T07:56:27.275Z,51.67
2017-08-26T07:57:27.032Z,52.15
2017-08-26T07:58:27.047Z,51.97
2017-08-26T07:59:27.095Z,51.67
2017-08-26T08:00:27.123Z,51.87
2017-08-26T08:01:27.165Z,51.77
2017-08-26T08:02:27.506Z,51.97
2017-08-26T08:03:27.242Z,51.67
2017-08-26T08:04:27.284Z,51.89
2017-08-26T08:05:27.320Z,51.89
2017-08-26T08:06:27.366Z,51.89
2017-08-26T08:07:27.405Z,51.60
2017-08-26T08:08:27.738Z,51.70
2017-08-26T08:09:27.479Z,51.89
2017-08-26T08:10:27.563Z,51.57
2017-08-26T08:11:27.552Z,51.77
2017-08-26T08:12:27.603Z,51.60
2017-08-26T08:13:27.635Z,51.40
2017-08-26T08:14:28.005Z,51.60
2017-08-26T08:15:27.710Z,51.50
2017-08-26T08:16:27.804Z,51.40
2017-08-26T08:17:27.784Z,51.70
2017-08-26T08:18:27.823Z,51.60
2017-08-26T08:19:27.875Z,51.40
2017-08-26T08:20:28.234Z,51.50
2017-08-26T08:21:27.996Z,51.50
2017-08-26T08:22:28.084Z,51.31
2017-08-26T08:23:28.024Z,51.40
2017-08-26T08:24:28.054Z,50.82
2017-08-26T08:25:28.107Z,50.82
2017-08-26T08:26:28.431Z,51.21
2017-08-26T08:27:28.322Z,50.73
2017-08-26T08:28:28.219Z,50.82
2017-08-26T08:29:28.264Z,50.73
2017-08-26T08:30:28.291Z,50.82
2017-08-26T08:31:28.326Z,51.11
2017-08-26T08:32:29.272Z,51.11
2017-08-26T08:33:28.558Z,51.31
2017-08-26T08:34:28.455Z,50.82
2017-08-26T08:35:28.488Z,50.82
2017-08-26T08:36:28.524Z,51.01
2017-08-26T08:37:28.565Z,50.82
2017-08-26T08:38:28.900Z,50.82
2017-08-26T08:39:28.644Z,51.11
2017-08-26T08:40:28.682Z,51.31
2017-08-26T08:41:28.716Z,50.92
2017-08-26T08:42:28.768Z,50.73
2017-08-26T08:43:28.802Z,51.31
2017-08-26T08:44:29.289Z,51.01
2017-08-26T08:45:28.878Z,50.92
2017-08-26T08:46:28.970Z,51.21
2017-08-26T08:47:28.953Z,50.82
2017-08-26T08:48:28.998Z,51.01
2017-08-26T08:49:29.052Z,51.21
2017-08-26T08:50:29.381Z,50.82
2017-08-26T08:51:29.269Z,51.40
2017-08-26T08:52:29.146Z,51.40
2017-08-26T08:53:29.187Z,51.40
2017-08-26T08:54:29.242Z,51.11
2017-08-26T08:55:29.270Z,50.53
2017-08-26T08:56:29.666Z,51.21
2017-08-26T08:57:29.353Z,51.01
2017-08-26T08:58:29.388Z,50.63
2017-08-26T08:59:29.452Z,51.01
2017-08-26T09:00:29.471Z,51.01
2017-08-26T09:01:29.503Z,50.82
2017-08-26T09:02:29.854Z,50.63
2017-08-26T09:03:29.590Z,50.73
2017-08-26T09:04:29.625Z,50.82
2017-08-26T09:05:29.718Z,50.73
2017-08-26T09:06:29.697Z,50.73
2017-08-26T09:07:29.735Z,50.53
2017-08-26T09:08:30.105Z,50.63
2017-08-26T09:09:29.813Z,50.73
2017-08-26T09:10:29.879Z,50.82
2017-08-26T09:11:29.894Z,50.53
2017-08-26T09:12:29.935Z,50.26
2017-08-26T09:13:29.976Z,50.34
2017-08-26T09:14:30.330Z,50.56
2017-08-26T09:15:30.364Z,50.43
2017-08-26T09:16:30.102Z,50.56
2017-08-26T09:17:30.179Z,50.73
2017-08-26T09:18:30.182Z,50.65
2017-08-26T09:19:30.213Z,50.36
2017-08-26T09:20:30.596Z,50.26
2017-08-26T09:21:30.286Z,50.36
2017-08-26T09:22:30.328Z,50.46
2017-08-26T09:23:30.363Z,50.36
2017-08-26T09:24:30.422Z,50.56
2017-08-26T09:25:30.484Z,50.56
2017-08-26T09:26:30.490Z,50.46
2017-08-26T09:27:30.870Z,50.65
2017-08-26T09:28:30.559Z,50.65
2017-08-26T09:29:30.602Z,50.56
2017-08-26T09:30:30.638Z,50.56
2017-08-26T09:31:30.683Z,50.26
2017-08-26T09:32:30.774Z,50.46
2017-08-26T09:33:30.814Z,49.97
2017-08-26T09:34:31.103Z,50.07
2017-08-26T09:35:30.845Z,50.07
2017-08-26T09:36:30.886Z,50.07
2017-08-26T09:37:30.923Z,50.07
2017-08-26T09:38:30.976Z,50.16
2017-08-26T09:39:31.011Z,50.07
2017-08-26T09:40:31.351Z,50.07
2017-08-26T09:41:31.085Z,49.97
2017-08-26T09:42:31.121Z,50.26
2017-08-26T09:43:31.154Z,50.16
2017-08-26T09:44:31.192Z,49.97
2017-08-26T09:45:31.233Z,49.97
2017-08-26T09:46:31.624Z,50.07
2017-08-26T09:47:31.308Z,49.49
2017-08-26T09:48:31.349Z,49.49
2017-08-26T09:49:31.395Z,49.58
2017-08-26T09:50:31.456Z,49.78
2017-08-26T09:51:31.491Z,49.68
2017-08-26T09:52:31.825Z,49.68
2017-08-26T09:53:31.557Z,49.99
2017-08-26T09:54:31.585Z,50.07
2017-08-26T09:55:31.634Z,49.49
2017-08-26T09:56:31.672Z,49.32
2017-08-26T09:57:31.705Z,49.22
2017-08-26T09:58:32.048Z,49.12
2017-08-26T09:59:31.950Z,49.32
2017-08-26T10:00:31.839Z,49.22
2017-08-26T10:01:31.866Z,49.22
2017-08-26T10:02:31.959Z,49.22
2017-08-26T10:03:31.952Z,49.02
2017-08-26T10:04:32.292Z,49.02
2017-08-26T10:05:32.033Z,49.02
2017-08-26T10:06:32.063Z,48.93
2017-08-26T10:07:32.102Z,49.12
2017-08-26T10:08:32.150Z,49.22
2017-08-26T10:09:32.188Z,49.12
2017-08-26T10:10:32.524Z,49.12
2017-08-26T10:11:32.270Z,49.22
2017-08-26T10:12:32.405Z,49.51
2017-08-26T10:13:32.720Z,49.41
2017-08-26T10:14:32.391Z,49.22
2017-08-26T10:15:32.436Z,49.22
2017-08-26T10:16:32.768Z,49.02
2017-08-26T10:17:32.506Z,48.83
2017-08-26T10:18:32.544Z,49.22
2017-08-26T10:19:32.599Z,49.12
2017-08-26T10:20:32.681Z,48.73
2017-08-26T10:21:32.664Z,48.73
2017-08-26T10:22:33.159Z,48.73
2017-08-26T10:23:32.742Z,48.73
2017-08-26T10:24:32.804Z,49.02
2017-08-26T10:25:32.854Z,48.93
2017-08-26T10:26:32.865Z,49.02
2017-08-26T10:27:32.900Z,49.12
2017-08-26T10:28:33.390Z,49.02
2017-08-26T10:29:32.982Z,48.93
2017-08-26T10:30:33.025Z,49.02
2017-08-26T10:31:33.113Z,49.02
2017-08-26T10:32:33.099Z,48.93
2017-08-26T10:33:33.138Z,49.02
2017-08-26T10:34:33.496Z,48.93
2017-08-26T10:35:33.274Z,49.12
2017-08-26T10:36:33.329Z,48.73
2017-08-26T10:37:33.311Z,48.63
2017-08-26T10:38:33.343Z,48.73
2017-08-26T10:39:33.408Z,48.73
2017-08-26T10:40:33.752Z,49.02
2017-08-26T10:41:33.475Z,48.93
2017-08-26T10:42:33.501Z,48.63
2017-08-26T10:43:33.541Z,48.75
2017-08-26T10:44:33.595Z,48.63
2017-08-26T10:45:33.630Z,48.54
2017-08-26T10:46:34.009Z,48.44
2017-08-26T10:47:33.757Z,48.44
2017-08-26T10:48:33.768Z,48.44
2017-08-26T10:49:33.778Z,48.44
2017-08-26T10:50:33.835Z,48.46
2017-08-26T10:51:33.871Z,47.98
2017-08-26T10:52:34.261Z,48.07
2017-08-26T10:53:33.946Z,48.05
2017-08-26T10:54:33.983Z,48.17
2017-08-26T10:55:34.022Z,48.17
2017-08-26T10:56:34.060Z,48.17
2017-08-26T10:57:34.110Z,47.98
2017-08-26T10:58:34.443Z,48.07
2017-08-26T10:59:34.211Z,48.27
2017-08-26T11:00:34.238Z,48.17
2017-08-26T11:01:34.270Z,47.88
2017-08-26T11:02:34.311Z,48.17
2017-08-26T11:03:34.392Z,48.17
2017-08-26T11:04:34.685Z,48.27
2017-08-26T11:05:34.470Z,48.17
2017-08-26T11:06:34.467Z,48.27
2017-08-26T11:07:34.505Z,48.07
2017-08-26T11:08:34.598Z,48.27
2017-08-26T11:09:34.586Z,48.17
2017-08-26T11:10:34.946Z,48.27
2017-08-26T11:11:35.676Z,48.27
2017-08-26T11:12:34.987Z,47.98
2017-08-26T11:13:35.081Z,48.07
2017-08-26T11:14:34.805Z,47.98
2017-08-26T11:15:34.979Z,48.07
2017-08-26T11:16:35.232Z,47.88
2017-08-26T11:17:34.931Z,48.17
2017-08-26T11:18:34.954Z,48.27
2017-08-26T11:19:35.074Z,48.17
2017-08-26T11:20:35.204Z,48.36
2017-08-26T11:21:35.129Z,48.17
2017-08-26T11:22:35.423Z,48.36
2017-08-26T11:23:35.179Z,48.36
2017-08-26T11:24:35.250Z,48.27
2017-08-26T11:25:35.278Z,48.17
2017-08-26T11:26:35.271Z,48.36
2017-08-26T11:27:35.310Z,48.27
2017-08-26T11:28:35.676Z,48.27
2017-08-26T11:29:35.397Z,48.27
2017-08-26T11:30:35.445Z,48.27
2017-08-26T11:31:35.487Z,48.27
2017-08-26T11:32:35.510Z,48.27
2017-08-26T11:33:35.552Z,48.27
2017-08-26T11:34:35.957Z,48.17
2017-08-26T11:35:35.633Z,48.17
2017-08-26T11:36:35.673Z,48.27
2017-08-26T11:37:35.718Z,48.27
2017-08-26T11:38:35.754Z,48.27
2017-08-26T11:39:35.797Z,48.36
2017-08-26T11:40:36.147Z,48.27
2017-08-26T11:41:35.880Z,48.46
2017-08-26T11:42:36.012Z,48.36
2017-08-26T11:43:35.966Z,48.36
2017-08-26T11:44:35.997Z,48.46
2017-08-26T11:45:36.099Z,48.46
2017-08-26T11:46:36.379Z,48.17
2017-08-26T11:47:36.116Z,48.07
2017-08-26T11:48:36.173Z,47.78
2017-08-26T11:49:36.196Z,47.69
2017-08-26T11:50:36.488Z,47.88
2017-08-26T11:51:36.294Z,47.88
2017-08-26T11:52:36.619Z,47.98
2017-08-26T11:53:36.406Z,47.98
2017-08-26T11:54:36.404Z,47.88
2017-08-26T11:55:36.448Z,48.07
2017-08-26T11:56:36.534Z,47.88
2017-08-26T11:57:36.518Z,47.98
2017-08-26T11:58:36.872Z,47.78
2017-08-26T11:59:36.601Z,47.78
2017-08-26T12:00:36.654Z,48.07
2017-08-26T12:01:36.681Z,47.71
2017-08-26T12:02:36.754Z,48.07
2017-08-26T12:03:36.845Z,48.07
2017-08-26T12:04:37.115Z,47.88
2017-08-26T12:05:36.843Z,47.39
2017-08-26T12:06:36.890Z,47.80
2017-08-26T12:07:36.935Z,47.59
2017-08-26T12:08:36.968Z,47.90
2017-08-26T12:09:37.020Z,47.61
2017-08-26T12:10:37.342Z,47.49
2017-08-26T12:11:37.090Z,47.52
2017-08-26T12:12:37.237Z,47.52
2017-08-26T12:13:37.162Z,47.90
2017-08-26T12:14:37.220Z,47.80
2017-08-26T12:15:37.254Z,47.61
2017-08-26T12:16:37.592Z,47.61
2017-08-26T12:17:37.328Z,47.32
2017-08-26T12:18:37.367Z,47.52
2017-08-26T12:19:37.404Z,47.22
2017-08-26T12:20:37.450Z,47.42
2017-08-26T12:21:37.491Z,47.61
2017-08-26T12:22:37.842Z,47.32
2017-08-26T12:23:37.569Z,47.03
2017-08-26T12:24:37.617Z,47.32
2017-08-26T12:25:37.656Z,47.32
2017-08-26T12:26:37.733Z,47.61
2017-08-26T12:27:37.736Z,47.52
2017-08-26T12:28:38.078Z,47.61
2017-08-26T12:29:37.819Z,47.61
2017-08-26T12:30:37.862Z,47.61
2017-08-26T12:31:37.895Z,47.32
2017-08-26T12:32:37.943Z,47.42
2017-08-26T12:33:37.986Z,47.61
2017-08-26T12:34:38.427Z,47.32
2017-08-26T12:35:38.059Z,47.61
2017-08-26T12:36:38.095Z,47.32
2017-08-26T12:37:38.138Z,47.32
2017-08-26T12:38:38.179Z,47.42
2017-08-26T12:39:38.482Z,47.52
2017-08-26T12:40:38.569Z,47.61
2017-08-26T12:41:38.605Z,47.69
2017-08-26T12:42:38.344Z,47.71
2017-08-26T12:43:38.383Z,47.52
2017-08-26T12:44:38.475Z,47.71
2017-08-26T12:46:38.811Z,48.10
2017-08-26T12:47:38.557Z,48.17
2017-08-26T12:48:38.604Z,47.88
2017-08-26T12:49:38.726Z,47.88
2017-08-26T12:50:39.753Z,47.88
2017-08-26T12:51:38.772Z,47.88
2017-08-26T12:52:39.101Z,47.88
2017-08-26T12:53:38.817Z,47.88
2017-08-26T12:54:38.882Z,47.98
2017-08-26T12:55:38.865Z,47.98